sensor_id;sensor_type;location;lat;lon;timestamp;P1;durP1;ratioP1;P2;durP2;ratioP2
35562;SDS011;21665;40.108;18.302;2024-02-26T13:58:00;15.80;;;14.80;;
35562;SDS011;21665;40.108;18.302;2024-02-26T14:00:30;16.40;;;14.95;;
35562;SDS011;21665;40.108;18.302;2024-02-26T14:03:03;15.38;;;14.48;;
35562;SDS011;21665;40.108;18.302;2024-02-26T14:05:35;14.50;;;13.50;;
35562;SDS011;21665;40.108;18.302;2024-02-26T14:08:05;15.48;;;14.48;;
35562;SDS011;21665;40.108;18.302;2024-02-26T14:10:32;16.00;;;14.82;;
35562;SDS011;21665;40.108;18.302;2024-02-26T14:13:03;16.63;;;15.27;;
35562;SDS011;21665;40.108;18.302;2024-02-26T14:15:30;16.67;;;15.38;;
35562;SDS011;21665;40.108;18.302;2024-02-26T14:17:58;16.17;;;14.75;;
35562;SDS011;21665;40.108;18.302;2024-02-26T14:20:29;16.27;;;15.07;;
35562;SDS011;21665;40.108;18.302;2024-02-26T14:22:58;15.80;;;14.73;;
35562;SDS011;21665;40.108;18.302;2024-02-26T14:25:28;17.52;;;15.85;;
35562;SDS011;21665;40.108;18.302;2024-02-26T14:27:56;15.45;;;14.35;;
35562;SDS011;21665;40.108;18.302;2024-02-26T14:30:26;15.50;;;14.40;;
35562;SDS011;21665;40.108;18.302;2024-02-26T14:32:53;15.65;;;14.30;;
35562;SDS011;21665;40.108;18.302;2024-02-26T14:35:20;15.57;;;14.18;;
35562;SDS011;21665;40.108;18.302;2024-02-26T14:37:49;15.82;;;14.63;;
35562;SDS011;21665;40.108;18.302;2024-02-26T14:40:18;15.68;;;14.45;;
35562;SDS011;21665;40.108;18.302;2024-02-26T14:42:45;16.23;;;14.82;;
35562;SDS011;21665;40.108;18.302;2024-02-26T14:45:12;14.88;;;13.95;;
35562;SDS011;21665;40.108;18.302;2024-02-26T14:47:39;15.75;;;14.75;;
35562;SDS011;21665;40.108;18.302;2024-02-26T14:50:05;15.25;;;14.15;;
35562;SDS011;21665;40.108;18.302;2024-02-26T14:52:34;15.57;;;14.57;;
35562;SDS011;21665;40.108;18.302;2024-02-26T14:55:04;16.10;;;14.57;;
35562;SDS011;21665;40.108;18.302;2024-02-26T14:57:32;16.00;;;14.55;;
35562;SDS011;21665;40.108;18.302;2024-02-26T14:59:59;16.02;;;14.73;;
35562;SDS011;21665;40.108;18.302;2024-02-26T15:02:26;14.88;;;13.70;;
35562;SDS011;21665;40.108;18.302;2024-02-26T15:04:54;14.85;;;13.80;;
35562;SDS011;21665;40.108;18.302;2024-02-26T15:07:21;14.70;;;13.45;;
35562;SDS011;21665;40.108;18.302;2024-02-26T15:09:51;14.60;;;13.70;;
35562;SDS011;21665;40.108;18.302;2024-02-26T15:12:23;14.32;;;13.43;;
35562;SDS011;21665;40.108;18.302;2024-02-26T15:15:01;14.93;;;13.57;;
35562;SDS011;21665;40.108;18.302;2024-02-26T15:17:28;14.10;;;13.07;;
35562;SDS011;21665;40.108;18.302;2024-02-26T15:19:54;14.63;;;13.63;;
35562;SDS011;21665;40.108;18.302;2024-02-26T15:22:22;14.93;;;14.00;;
35562;SDS011;21665;40.108;18.302;2024-02-26T15:24:50;14.60;;;13.57;;
35562;SDS011;21665;40.108;18.302;2024-02-26T15:27:17;15.60;;;14.43;;
35562;SDS011;21665;40.108;18.302;2024-02-26T15:29:43;16.05;;;14.55;;
35562;SDS011;21665;40.108;18.302;2024-02-26T15:32:10;15.40;;;14.40;;
35562;SDS011;21665;40.108;18.302;2024-02-26T15:34:37;14.57;;;13.68;;
35562;SDS011;21665;40.108;18.302;2024-02-26T15:37:05;15.07;;;14.07;;
35562;SDS011;21665;40.108;18.302;2024-02-26T15:39:32;14.77;;;13.75;;
35562;SDS011;21665;40.108;18.302;2024-02-26T15:42:06;14.77;;;13.40;;
35562;SDS011;21665;40.108;18.302;2024-02-26T15:44:37;15.85;;;14.18;;
35562;SDS011;21665;40.108;18.302;2024-02-26T15:47:05;15.50;;;14.30;;
35562;SDS011;21665;40.108;18.302;2024-02-26T15:49:32;15.32;;;14.10;;
35562;SDS011;21665;40.108;18.302;2024-02-26T15:52:03;14.48;;;13.43;;
35562;SDS011;21665;40.108;18.302;2024-02-26T15:54:30;15.15;;;13.68;;
35562;SDS011;21665;40.108;18.302;2024-02-26T15:56:58;14.80;;;13.43;;
35562;SDS011;21665;40.108;18.302;2024-02-26T15:59:26;15.63;;;14.43;;
35562;SDS011;21665;40.108;18.302;2024-02-26T16:01:53;15.80;;;14.52;;
35562;SDS011;21665;40.108;18.302;2024-02-26T16:04:21;15.00;;;13.95;;
35562;SDS011;21665;40.108;18.302;2024-02-26T16:06:52;16.13;;;14.88;;
35562;SDS011;21665;40.108;18.302;2024-02-26T16:09:27;15.63;;;14.32;;
35562;SDS011;21665;40.108;18.302;2024-02-26T16:12:01;15.10;;;13.90;;
35562;SDS011;21665;40.108;18.302;2024-02-26T16:14:46;14.30;;;13.20;;
35562;SDS011;21665;40.108;18.302;2024-02-26T16:17:23;14.80;;;13.57;;
35562;SDS011;21665;40.108;18.302;2024-02-26T16:19:57;13.65;;;12.57;;
35562;SDS011;21665;40.108;18.302;2024-02-26T16:22:25;13.65;;;12.48;;
35562;SDS011;21665;40.108;18.302;2024-02-26T16:24:53;14.27;;;12.95;;
35562;SDS011;21665;40.108;18.302;2024-02-26T16:27:20;13.13;;;12.05;;
35562;SDS011;21665;40.108;18.302;2024-02-26T16:29:47;12.95;;;12.05;;
35562;SDS011;21665;40.108;18.302;2024-02-26T16:32:14;13.73;;;12.45;;
35562;SDS011;21665;40.108;18.302;2024-02-26T16:34:41;14.45;;;13.13;;
35562;SDS011;21665;40.108;18.302;2024-02-26T16:37:09;14.15;;;12.85;;
35562;SDS011;21665;40.108;18.302;2024-02-26T16:39:38;14.35;;;13.23;;
35562;SDS011;21665;40.108;18.302;2024-02-26T16:42:05;14.07;;;12.75;;
35562;SDS011;21665;40.108;18.302;2024-02-26T16:44:44;13.32;;;12.10;;
35562;SDS011;21665;40.108;18.302;2024-02-26T16:47:11;13.50;;;12.20;;
35562;SDS011;21665;40.108;18.302;2024-02-26T16:49:38;13.93;;;12.73;;
35562;SDS011;21665;40.108;18.302;2024-02-26T16:52:05;13.32;;;12.25;;
35562;SDS011;21665;40.108;18.302;2024-02-26T16:54:32;14.57;;;13.15;;
35562;SDS011;21665;40.108;18.302;2024-02-26T16:56:59;14.63;;;13.20;;
35562;SDS011;21665;40.108;18.302;2024-02-26T16:59:27;14.80;;;13.25;;
35562;SDS011;21665;40.108;18.302;2024-02-26T17:01:55;14.38;;;12.88;;
35562;SDS011;21665;40.108;18.302;2024-02-26T17:04:25;14.65;;;12.98;;
35562;SDS011;21665;40.108;18.302;2024-02-26T17:06:53;14.48;;;13.05;;
35562;SDS011;21665;40.108;18.302;2024-02-26T17:09:20;16.20;;;13.27;;
35562;SDS011;21665;40.108;18.302;2024-02-26T17:11:47;18.10;;;12.48;;
35562;SDS011;21665;40.108;18.302;2024-02-26T17:14:14;20.52;;;13.40;;
35562;SDS011;21665;40.108;18.302;2024-02-26T17:16:41;14.90;;;13.10;;
35562;SDS011;21665;40.108;18.302;2024-02-26T17:19:09;15.07;;;13.45;;
35562;SDS011;21665;40.108;18.302;2024-02-26T17:21:36;17.10;;;14.23;;
35562;SDS011;21665;40.108;18.302;2024-02-26T17:24:03;19.17;;;15.85;;
35562;SDS011;21665;40.108;18.302;2024-02-26T17:26:30;18.38;;;14.50;;
35562;SDS011;21665;40.108;18.302;2024-02-26T17:28:58;19.40;;;14.20;;
35562;SDS011;21665;40.108;18.302;2024-02-26T17:31:27;20.52;;;15.60;;
35562;SDS011;21665;40.108;18.302;2024-02-26T17:34:15;24.95;;;17.45;;
35562;SDS011;21665;40.108;18.302;2024-02-26T17:36:42;29.25;;;16.58;;
35562;SDS011;21665;40.108;18.302;2024-02-26T17:39:09;22.38;;;16.25;;
35562;SDS011;21665;40.108;18.302;2024-02-26T17:41:36;21.67;;;15.93;;
35562;SDS011;21665;40.108;18.302;2024-02-26T17:44:04;27.08;;;15.70;;
35562;SDS011;21665;40.108;18.302;2024-02-26T17:46:31;17.98;;;12.90;;
35562;SDS011;21665;40.108;18.302;2024-02-26T17:48:59;20.25;;;12.38;;
35562;SDS011;21665;40.108;18.302;2024-02-26T17:51:26;16.67;;;12.25;;
35562;SDS011;21665;40.108;18.302;2024-02-26T17:53:53;17.17;;;13.35;;
35562;SDS011;21665;40.108;18.302;2024-02-26T17:56:20;21.67;;;15.20;;
35562;SDS011;21665;40.108;18.302;2024-02-26T17:58:46;22.17;;;17.20;;
35562;SDS011;21665;40.108;18.302;2024-02-26T18:01:13;21.85;;;15.25;;
35562;SDS011;21665;40.108;18.302;2024-02-26T18:03:39;24.92;;;17.02;;
35562;SDS011;21665;40.108;18.302;2024-02-26T18:06:06;23.85;;;16.65;;
35562;SDS011;21665;40.108;18.302;2024-02-26T18:08:33;23.77;;;15.35;;
35562;SDS011;21665;40.108;18.302;2024-02-26T18:11:00;19.48;;;14.27;;
35562;SDS011;21665;40.108;18.302;2024-02-26T18:13:28;23.05;;;14.23;;
35562;SDS011;21665;40.108;18.302;2024-02-26T18:15:54;17.40;;;13.40;;
35562;SDS011;21665;40.108;18.302;2024-02-26T18:18:23;23.40;;;14.90;;
35562;SDS011;21665;40.108;18.302;2024-02-26T18:20:51;27.92;;;16.20;;
35562;SDS011;21665;40.108;18.302;2024-02-26T18:23:17;22.88;;;14.48;;
35562;SDS011;21665;40.108;18.302;2024-02-26T18:25:44;23.67;;;14.98;;
35562;SDS011;21665;40.108;18.302;2024-02-26T18:28:10;20.38;;;14.63;;
35562;SDS011;21665;40.108;18.302;2024-02-26T18:30:37;25.75;;;15.57;;
35562;SDS011;21665;40.108;18.302;2024-02-26T18:33:05;19.70;;;14.05;;
35562;SDS011;21665;40.108;18.302;2024-02-26T18:35:33;24.10;;;15.73;;
35562;SDS011;21665;40.108;18.302;2024-02-26T18:37:59;21.35;;;15.25;;
35562;SDS011;21665;40.108;18.302;2024-02-26T18:40:27;20.63;;;14.88;;
35562;SDS011;21665;40.108;18.302;2024-02-26T18:42:55;27.20;;;16.77;;
35562;SDS011;21665;40.108;18.302;2024-02-26T18:45:22;25.90;;;16.20;;
35562;SDS011;21665;40.108;18.302;2024-02-26T18:47:48;23.30;;;16.42;;
35562;SDS011;21665;40.108;18.302;2024-02-26T18:50:15;23.92;;;15.55;;
35562;SDS011;21665;40.108;18.302;2024-02-26T18:52:42;28.10;;;17.35;;
35562;SDS011;21665;40.108;18.302;2024-02-26T18:55:09;30.90;;;19.70;;
35562;SDS011;21665;40.108;18.302;2024-02-26T18:57:35;30.27;;;19.23;;
35562;SDS011;21665;40.108;18.302;2024-02-26T19:00:02;37.72;;;25.13;;
35562;SDS011;21665;40.108;18.302;2024-02-26T19:02:30;68.25;;;35.97;;
35562;SDS011;21665;40.108;18.302;2024-02-26T19:04:57;131.30;;;62.53;;
35562;SDS011;21665;40.108;18.302;2024-02-26T19:07:24;46.85;;;28.90;;
35562;SDS011;21665;40.108;18.302;2024-02-26T19:09:51;43.53;;;23.35;;
35562;SDS011;21665;40.108;18.302;2024-02-26T19:12:20;40.38;;;25.23;;
35562;SDS011;21665;40.108;18.302;2024-02-26T19:14:48;49.22;;;27.30;;
35562;SDS011;21665;40.108;18.302;2024-02-26T19:17:15;328.08;;;57.42;;
35562;SDS011;21665;40.108;18.302;2024-02-26T19:19:45;1999.90;;;653.63;;
35562;SDS011;21665;40.108;18.302;2024-02-26T19:22:24;1999.90;;;527.30;;
35562;SDS011;21665;40.108;18.302;2024-02-26T19:25:08;1386.72;;;300.52;;
35562;SDS011;21665;40.108;18.302;2024-02-26T19:27:36;1181.20;;;251.70;;
35562;SDS011;21665;40.108;18.302;2024-02-26T19:30:04;801.60;;;164.73;;
35562;SDS011;21665;40.108;18.302;2024-02-26T19:32:37;538.35;;;109.45;;
35562;SDS011;21665;40.108;18.302;2024-02-26T19:35:09;585.55;;;106.85;;
35562;SDS011;21665;40.108;18.302;2024-02-26T19:37:56;512.22;;;96.90;;
35562;SDS011;21665;40.108;18.302;2024-02-26T19:43:15;270.52;;;54.58;;
35562;SDS011;21665;40.108;18.302;2024-02-26T19:45:43;239.40;;;49.03;;
35562;SDS011;21665;40.108;18.302;2024-02-26T19:48:13;237.27;;;49.70;;
35562;SDS011;21665;40.108;18.302;2024-02-26T19:50:41;296.02;;;55.42;;
35562;SDS011;21665;40.108;18.302;2024-02-26T19:53:16;259.08;;;53.33;;
35562;SDS011;21665;40.108;18.302;2024-02-26T19:55:45;197.57;;;45.22;;
35562;SDS011;21665;40.108;18.302;2024-02-26T19:58:23;143.20;;;34.53;;
35562;SDS011;21665;40.108;18.302;2024-02-26T20:01:02;65.75;;;26.15;;
35562;SDS011;21665;40.108;18.302;2024-02-26T20:03:29;45.17;;;22.80;;
35562;SDS011;21665;40.108;18.302;2024-02-26T20:06:00;43.72;;;24.30;;
35562;SDS011;21665;40.108;18.302;2024-02-26T20:08:30;40.10;;;22.77;;
35562;SDS011;21665;40.108;18.302;2024-02-26T20:11:00;62.45;;;32.35;;
35562;SDS011;21665;40.108;18.302;2024-02-26T20:13:28;71.70;;;30.42;;
35562;SDS011;21665;40.108;18.302;2024-02-26T20:15:57;65.05;;;26.58;;
35562;SDS011;21665;40.108;18.302;2024-02-26T20:18:24;53.67;;;25.92;;
35562;SDS011;21665;40.108;18.302;2024-02-26T20:20:52;62.58;;;27.60;;
35562;SDS011;21665;40.108;18.302;2024-02-26T20:23:21;60.85;;;26.90;;
35562;SDS011;21665;40.108;18.302;2024-02-26T20:25:49;51.28;;;24.75;;
35562;SDS011;21665;40.108;18.302;2024-02-26T20:28:19;45.33;;;24.75;;
35562;SDS011;21665;40.108;18.302;2024-02-26T20:30:54;40.35;;;23.15;;
35562;SDS011;21665;40.108;18.302;2024-02-26T20:33:23;41.72;;;23.33;;
35562;SDS011;21665;40.108;18.302;2024-02-26T20:35:51;34.47;;;21.80;;
35562;SDS011;21665;40.108;18.302;2024-02-26T20:38:22;37.95;;;22.50;;
35562;SDS011;21665;40.108;18.302;2024-02-26T20:40:53;40.28;;;22.67;;
35562;SDS011;21665;40.108;18.302;2024-02-26T20:43:29;44.30;;;22.88;;
35562;SDS011;21665;40.108;18.302;2024-02-26T20:46:27;33.63;;;20.05;;
35562;SDS011;21665;40.108;18.302;2024-02-26T20:50:02;34.03;;;18.90;;
35562;SDS011;21665;40.108;18.302;2024-02-26T20:52:31;35.55;;;20.25;;
35562;SDS011;21665;40.108;18.302;2024-02-26T20:54:58;27.30;;;18.40;;
35562;SDS011;21665;40.108;18.302;2024-02-26T20:57:25;27.45;;;18.45;;
35562;SDS011;21665;40.108;18.302;2024-02-26T20:59:52;30.83;;;18.48;;
35562;SDS011;21665;40.108;18.302;2024-02-26T21:02:19;32.90;;;19.73;;
35562;SDS011;21665;40.108;18.302;2024-02-26T21:04:45;37.03;;;21.98;;
35562;SDS011;21665;40.108;18.302;2024-02-26T21:07:13;35.63;;;21.45;;
35562;SDS011;21665;40.108;18.302;2024-02-26T21:09:46;43.58;;;24.45;;
35562;SDS011;21665;40.108;18.302;2024-02-26T21:12:13;37.13;;;22.88;;
35562;SDS011;21665;40.108;18.302;2024-02-26T21:14:42;38.25;;;22.02;;
35562;SDS011;21665;40.108;18.302;2024-02-26T21:17:09;30.75;;;19.85;;
35562;SDS011;21665;40.108;18.302;2024-02-26T21:19:36;34.90;;;22.48;;
35562;SDS011;21665;40.108;18.302;2024-02-26T21:22:03;37.30;;;23.02;;
35562;SDS011;21665;40.108;18.302;2024-02-26T21:24:32;38.65;;;22.15;;
35562;SDS011;21665;40.108;18.302;2024-02-26T21:26:59;32.67;;;21.38;;
35562;SDS011;21665;40.108;18.302;2024-02-26T21:29:27;34.22;;;19.45;;
35562;SDS011;21665;40.108;18.302;2024-02-26T21:31:53;31.50;;;19.80;;
35562;SDS011;21665;40.108;18.302;2024-02-26T21:34:20;25.15;;;17.15;;
35562;SDS011;21665;40.108;18.302;2024-02-26T21:36:47;28.75;;;17.40;;
35562;SDS011;21665;40.108;18.302;2024-02-26T21:39:13;32.95;;;17.50;;
35562;SDS011;21665;40.108;18.302;2024-02-26T21:41:40;34.20;;;19.90;;
35562;SDS011;21665;40.108;18.302;2024-02-26T21:44:06;24.52;;;17.70;;
35562;SDS011;21665;40.108;18.302;2024-02-26T21:46:34;32.50;;;17.63;;
35562;SDS011;21665;40.108;18.302;2024-02-26T21:49:04;31.85;;;18.48;;
35562;SDS011;21665;40.108;18.302;2024-02-26T21:51:30;29.10;;;18.45;;
35562;SDS011;21665;40.108;18.302;2024-02-26T21:53:57;34.05;;;19.55;;
35562;SDS011;21665;40.108;18.302;2024-02-26T21:56:23;28.73;;;18.10;;
35562;SDS011;21665;40.108;18.302;2024-02-26T21:58:50;29.50;;;19.33;;
35562;SDS011;21665;40.108;18.302;2024-02-26T22:01:16;32.92;;;21.58;;
35562;SDS011;21665;40.108;18.302;2024-02-26T22:03:42;35.42;;;21.75;;
35562;SDS011;21665;40.108;18.302;2024-02-26T22:06:09;29.63;;;19.92;;
35562;SDS011;21665;40.108;18.302;2024-02-26T22:08:35;33.42;;;21.10;;
35562;SDS011;21665;40.108;18.302;2024-02-26T22:11:02;32.65;;;21.65;;
35562;SDS011;21665;40.108;18.302;2024-02-26T22:13:31;41.45;;;23.38;;
35562;SDS011;21665;40.108;18.302;2024-02-26T22:15:58;34.38;;;22.38;;
35562;SDS011;21665;40.108;18.302;2024-02-26T22:18:24;41.67;;;24.27;;
35562;SDS011;21665;40.108;18.302;2024-02-26T22:20:51;36.03;;;22.85;;
35562;SDS011;21665;40.108;18.302;2024-02-26T22:23:17;33.47;;;21.88;;
35562;SDS011;21665;40.108;18.302;2024-02-26T22:25:43;35.85;;;24.00;;
35562;SDS011;21665;40.108;18.302;2024-02-26T22:28:10;42.60;;;26.55;;
35562;SDS011;21665;40.108;18.302;2024-02-26T22:30:36;45.40;;;24.67;;
35562;SDS011;21665;40.108;18.302;2024-02-26T22:33:03;39.13;;;24.88;;
35562;SDS011;21665;40.108;18.302;2024-02-26T22:35:30;37.25;;;24.40;;
35562;SDS011;21665;40.108;18.302;2024-02-26T22:37:57;36.65;;;24.55;;
35562;SDS011;21665;40.108;18.302;2024-02-26T22:40:23;35.67;;;21.85;;
35562;SDS011;21665;40.108;18.302;2024-02-26T22:42:49;41.63;;;24.77;;
35562;SDS011;21665;40.108;18.302;2024-02-26T22:45:21;39.72;;;23.70;;
35562;SDS011;21665;40.108;18.302;2024-02-26T22:47:49;35.95;;;22.30;;
35562;SDS011;21665;40.108;18.302;2024-02-26T22:50:16;41.67;;;23.73;;
35562;SDS011;21665;40.108;18.302;2024-02-26T22:52:45;41.08;;;23.67;;
35562;SDS011;21665;40.108;18.302;2024-02-26T22:55:13;37.58;;;23.70;;
35562;SDS011;21665;40.108;18.302;2024-02-26T22:57:40;38.63;;;23.30;;
35562;SDS011;21665;40.108;18.302;2024-02-26T23:00:06;38.10;;;24.30;;
35562;SDS011;21665;40.108;18.302;2024-02-26T23:02:53;47.22;;;24.55;;
35562;SDS011;21665;40.108;18.302;2024-02-26T23:05:23;44.42;;;24.88;;
35562;SDS011;21665;40.108;18.302;2024-02-26T23:07:51;40.97;;;23.60;;
35562;SDS011;21665;40.108;18.302;2024-02-26T23:10:20;36.58;;;22.40;;
35562;SDS011;21665;40.108;18.302;2024-02-26T23:12:47;43.13;;;23.38;;
35562;SDS011;21665;40.108;18.302;2024-02-26T23:15:14;37.30;;;21.08;;
35562;SDS011;21665;40.108;18.302;2024-02-26T23:17:42;36.83;;;21.20;;
35562;SDS011;21665;40.108;18.302;2024-02-26T23:20:10;37.67;;;22.02;;
35562;SDS011;21665;40.108;18.302;2024-02-26T23:22:42;36.53;;;22.23;;
35562;SDS011;21665;40.108;18.302;2024-02-26T23:25:11;35.08;;;22.00;;
35562;SDS011;21665;40.108;18.302;2024-02-26T23:27:38;34.97;;;21.77;;
35562;SDS011;21665;40.108;18.302;2024-02-26T23:30:08;44.53;;;23.05;;
35562;SDS011;21665;40.108;18.302;2024-02-26T23:32:34;36.58;;;23.23;;
35562;SDS011;21665;40.108;18.302;2024-02-26T23:35:01;36.30;;;22.42;;
35562;SDS011;21665;40.108;18.302;2024-02-26T23:37:27;43.67;;;24.23;;
35562;SDS011;21665;40.108;18.302;2024-02-26T23:39:54;43.53;;;24.15;;
35562;SDS011;21665;40.108;18.302;2024-02-26T23:42:20;44.83;;;24.83;;
35562;SDS011;21665;40.108;18.302;2024-02-26T23:44:47;42.80;;;24.98;;
35562;SDS011;21665;40.108;18.302;2024-02-26T23:47:13;44.17;;;24.10;;
35562;SDS011;21665;40.108;18.302;2024-02-26T23:49:40;42.88;;;24.52;;
35562;SDS011;21665;40.108;18.302;2024-02-26T23:52:06;37.70;;;24.00;;
35562;SDS011;21665;40.108;18.302;2024-02-26T23:54:34;45.92;;;26.15;;
35562;SDS011;21665;40.108;18.302;2024-02-26T23:57:01;39.10;;;24.95;;
35562;SDS011;21665;40.108;18.302;2024-02-26T23:59:29;40.25;;;24.27;;
